sensor_id;sensor_type;location;lat;lon;timestamp;P1;durP1;ratioP1;P2;durP2;ratioP2
23300;SDS011;11819;51.394;12.340;2023-03-13T00:00:48;11.73;;;5.30;;
23300;SDS011;11819;51.394;12.340;2023-03-13T00:03:14;15.27;;;6.70;;
23300;SDS011;11819;51.394;12.340;2023-03-13T00:05:39;12.50;;;6.47;;
23300;SDS011;11819;51.394;12.340;2023-03-13T00:08:05;10.35;;;5.78;;
23300;SDS011;11819;51.394;12.340;2023-03-13T00:10:31;14.43;;;6.53;;
23300;SDS011;11819;51.394;12.340;2023-03-13T00:12:56;13.07;;;6.20;;
23300;SDS011;11819;51.394;12.340;2023-03-13T00:15:22;14.90;;;6.17;;
23300;SDS011;11819;51.394;12.340;2023-03-13T00:17:47;10.13;;;5.90;;
23300;SDS011;11819;51.394;12.340;2023-03-13T00:20:13;13.87;;;6.17;;
23300;SDS011;11819;51.394;12.340;2023-03-13T00:22:41;11.38;;;5.90;;
23300;SDS011;11819;51.394;12.340;2023-03-13T00:25:07;12.90;;;6.18;;
23300;SDS011;11819;51.394;12.340;2023-03-13T00:27:33;14.97;;;5.87;;
23300;SDS011;11819;51.394;12.340;2023-03-13T00:29:59;11.52;;;5.60;;
23300;SDS011;11819;51.394;12.340;2023-03-13T00:32:24;11.30;;;5.83;;
23300;SDS011;11819;51.394;12.340;2023-03-13T00:34:50;13.83;;;6.17;;
23300;SDS011;11819;51.394;12.340;2023-03-13T00:37:16;12.47;;;5.90;;
23300;SDS011;11819;51.394;12.340;2023-03-13T00:39:41;12.87;;;5.87;;
23300;SDS011;11819;51.394;12.340;2023-03-13T00:42:07;11.83;;;5.77;;
23300;SDS011;11819;51.394;12.340;2023-03-13T00:44:33;18.45;;;6.75;;
23300;SDS011;11819;51.394;12.340;2023-03-13T00:46:58;12.48;;;6.07;;
23300;SDS011;11819;51.394;12.340;2023-03-13T00:49:24;12.70;;;6.03;;
23300;SDS011;11819;51.394;12.340;2023-03-13T00:51:50;15.95;;;6.22;;
23300;SDS011;11819;51.394;12.340;2023-03-13T00:54:16;12.73;;;6.40;;
23300;SDS011;11819;51.394;12.340;2023-03-13T00:56:42;11.45;;;5.43;;
23300;SDS011;11819;51.394;12.340;2023-03-13T00:59:08;11.60;;;5.77;;
23300;SDS011;11819;51.394;12.340;2023-03-13T01:01:34;16.08;;;6.03;;
23300;SDS011;11819;51.394;12.340;2023-03-13T01:04:01;16.07;;;5.70;;
23300;SDS011;11819;51.394;12.340;2023-03-13T01:06:30;11.93;;;5.80;;
23300;SDS011;11819;51.394;12.340;2023-03-13T01:08:57;15.80;;;5.67;;
23300;SDS011;11819;51.394;12.340;2023-03-13T01:11:26;15.02;;;5.60;;
23300;SDS011;11819;51.394;12.340;2023-03-13T01:13:54;13.27;;;5.60;;
23300;SDS011;11819;51.394;12.340;2023-03-13T01:16:25;14.33;;;6.47;;
23300;SDS011;11819;51.394;12.340;2023-03-13T01:18:52;13.15;;;6.18;;
23300;SDS011;11819;51.394;12.340;2023-03-13T01:21:20;13.93;;;5.75;;
23300;SDS011;11819;51.394;12.340;2023-03-13T01:23:48;11.93;;;5.00;;
23300;SDS011;11819;51.394;12.340;2023-03-13T01:26:15;15.03;;;5.10;;
23300;SDS011;11819;51.394;12.340;2023-03-13T01:28:41;12.80;;;5.32;;
23300;SDS011;11819;51.394;12.340;2023-03-13T01:31:18;14.15;;;6.30;;
23300;SDS011;11819;51.394;12.340;2023-03-13T01:33:46;12.93;;;5.80;;
23300;SDS011;11819;51.394;12.340;2023-03-13T01:36:14;17.95;;;5.47;;
23300;SDS011;11819;51.394;12.340;2023-03-13T01:38:41;10.52;;;5.38;;
23300;SDS011;11819;51.394;12.340;2023-03-13T01:41:09;14.38;;;5.93;;
23300;SDS011;11819;51.394;12.340;2023-03-13T01:43:36;14.68;;;5.93;;
23300;SDS011;11819;51.394;12.340;2023-03-13T01:46:12;20.63;;;7.78;;
23300;SDS011;11819;51.394;12.340;2023-03-13T01:49:14;18.37;;;6.10;;
23300;SDS011;11819;51.394;12.340;2023-03-13T01:52:07;19.45;;;6.30;;
23300;SDS011;11819;51.394;12.340;2023-03-13T01:54:53;16.40;;;6.00;;
23300;SDS011;11819;51.394;12.340;2023-03-13T01:57:35;17.08;;;5.68;;
23300;SDS011;11819;51.394;12.340;2023-03-13T02:00:12;14.95;;;5.65;;
23300;SDS011;11819;51.394;12.340;2023-03-13T02:02:45;16.43;;;5.70;;
23300;SDS011;11819;51.394;12.340;2023-03-13T02:05:15;14.80;;;5.13;;
23300;SDS011;11819;51.394;12.340;2023-03-13T02:07:55;14.07;;;5.68;;
23300;SDS011;11819;51.394;12.340;2023-03-13T02:10:28;14.80;;;5.30;;
23300;SDS011;11819;51.394;12.340;2023-03-13T02:12:55;16.90;;;5.15;;
23300;SDS011;11819;51.394;12.340;2023-03-13T02:15:23;17.23;;;5.30;;
23300;SDS011;11819;51.394;12.340;2023-03-13T02:17:52;17.10;;;5.25;;
23300;SDS011;11819;51.394;12.340;2023-03-13T02:20:20;13.65;;;5.10;;
23300;SDS011;11819;51.394;12.340;2023-03-13T02:22:58;10.77;;;5.00;;
23300;SDS011;11819;51.394;12.340;2023-03-13T02:25:45;10.80;;;4.18;;
23300;SDS011;11819;51.394;12.340;2023-03-13T02:28:29;16.27;;;4.87;;
23300;SDS011;11819;51.394;12.340;2023-03-13T02:30:59;12.55;;;4.13;;
23300;SDS011;11819;51.394;12.340;2023-03-13T02:33:29;13.27;;;4.78;;
23300;SDS011;11819;51.394;12.340;2023-03-13T02:35:58;16.08;;;5.25;;
23300;SDS011;11819;51.394;12.340;2023-03-13T02:38:28;14.25;;;5.15;;
23300;SDS011;11819;51.394;12.340;2023-03-13T02:40:57;13.63;;;4.97;;
23300;SDS011;11819;51.394;12.340;2023-03-13T02:46:03;16.58;;;5.50;;
23300;SDS011;11819;51.394;12.340;2023-03-13T02:48:40;11.65;;;5.03;;
23300;SDS011;11819;51.394;12.340;2023-03-13T02:51:10;19.17;;;5.15;;
23300;SDS011;11819;51.394;12.340;2023-03-13T02:53:42;11.20;;;4.70;;
23300;SDS011;11819;51.394;12.340;2023-03-13T02:56:11;14.07;;;4.75;;
23300;SDS011;11819;51.394;12.340;2023-03-13T02:58:41;15.03;;;5.27;;
23300;SDS011;11819;51.394;12.340;2023-03-13T03:01:08;17.58;;;5.45;;
23300;SDS011;11819;51.394;12.340;2023-03-13T03:03:37;18.25;;;4.97;;
23300;SDS011;11819;51.394;12.340;2023-03-13T03:06:03;15.65;;;4.90;;
23300;SDS011;11819;51.394;12.340;2023-03-13T03:08:31;19.42;;;4.80;;
23300;SDS011;11819;51.394;12.340;2023-03-13T03:10:57;11.20;;;4.63;;
23300;SDS011;11819;51.394;12.340;2023-03-13T03:13:23;15.07;;;4.38;;
23300;SDS011;11819;51.394;12.340;2023-03-13T03:15:49;12.77;;;4.43;;
23300;SDS011;11819;51.394;12.340;2023-03-13T03:18:15;14.60;;;5.13;;
23300;SDS011;11819;51.394;12.340;2023-03-13T03:20:41;12.20;;;4.82;;
23300;SDS011;11819;51.394;12.340;2023-03-13T03:23:07;11.10;;;4.85;;
23300;SDS011;11819;51.394;12.340;2023-03-13T03:25:33;16.38;;;5.40;;
23300;SDS011;11819;51.394;12.340;2023-03-13T03:27:59;12.15;;;4.25;;
23300;SDS011;11819;51.394;12.340;2023-03-13T03:30:25;15.73;;;4.57;;
23300;SDS011;11819;51.394;12.340;2023-03-13T03:32:52;12.63;;;5.03;;
23300;SDS011;11819;51.394;12.340;2023-03-13T03:35:21;15.93;;;4.57;;
23300;SDS011;11819;51.394;12.340;2023-03-13T03:37:47;13.07;;;4.28;;
23300;SDS011;11819;51.394;12.340;2023-03-13T03:40:14;12.03;;;3.80;;
23300;SDS011;11819;51.394;12.340;2023-03-13T03:42:40;12.80;;;4.00;;
23300;SDS011;11819;51.394;12.340;2023-03-13T03:45:06;13.70;;;4.55;;
23300;SDS011;11819;51.394;12.340;2023-03-13T03:47:32;12.07;;;4.10;;
23300;SDS011;11819;51.394;12.340;2023-03-13T03:49:58;11.63;;;4.03;;
23300;SDS011;11819;51.394;12.340;2023-03-13T03:52:24;17.13;;;4.18;;
23300;SDS011;11819;51.394;12.340;2023-03-13T03:54:50;12.23;;;3.97;;
23300;SDS011;11819;51.394;12.340;2023-03-13T03:57:16;15.05;;;5.97;;
23300;SDS011;11819;51.394;12.340;2023-03-13T03:59:43;11.93;;;4.15;;
23300;SDS011;11819;51.394;12.340;2023-03-13T04:02:09;12.38;;;4.43;;
23300;SDS011;11819;51.394;12.340;2023-03-13T04:04:35;12.52;;;4.03;;
23300;SDS011;11819;51.394;12.340;2023-03-13T04:07:08;14.48;;;4.25;;
23300;SDS011;11819;51.394;12.340;2023-03-13T04:09:35;16.67;;;5.13;;
23300;SDS011;11819;51.394;12.340;2023-03-13T04:12:02;13.38;;;4.55;;
23300;SDS011;11819;51.394;12.340;2023-03-13T04:14:33;15.40;;;4.65;;
23300;SDS011;11819;51.394;12.340;2023-03-13T04:17:03;14.63;;;4.47;;
23300;SDS011;11819;51.394;12.340;2023-03-13T04:19:29;13.85;;;4.18;;
23300;SDS011;11819;51.394;12.340;2023-03-13T04:21:55;11.90;;;4.03;;
23300;SDS011;11819;51.394;12.340;2023-03-13T04:24:20;11.60;;;4.05;;
23300;SDS011;11819;51.394;12.340;2023-03-13T04:26:47;14.98;;;4.15;;
23300;SDS011;11819;51.394;12.340;2023-03-13T04:29:13;18.50;;;4.50;;
23300;SDS011;11819;51.394;12.340;2023-03-13T04:31:48;17.08;;;4.68;;
23300;SDS011;11819;51.394;12.340;2023-03-13T04:34:26;16.48;;;4.65;;
23300;SDS011;11819;51.394;12.340;2023-03-13T04:37:04;12.40;;;3.95;;
23300;SDS011;11819;51.394;12.340;2023-03-13T04:39:37;16.55;;;5.03;;
23300;SDS011;11819;51.394;12.340;2023-03-13T04:42:21;17.23;;;4.78;;
23300;SDS011;11819;51.394;12.340;2023-03-13T04:44:56;11.45;;;3.90;;
23300;SDS011;11819;51.394;12.340;2023-03-13T04:47:35;12.90;;;3.80;;
23300;SDS011;11819;51.394;12.340;2023-03-13T04:50:27;12.75;;;4.07;;
23300;SDS011;11819;51.394;12.340;2023-03-13T04:53:08;15.50;;;4.72;;
23300;SDS011;11819;51.394;12.340;2023-03-13T04:55:54;16.45;;;4.22;;
23300;SDS011;11819;51.394;12.340;2023-03-13T04:58:38;15.18;;;4.32;;
23300;SDS011;11819;51.394;12.340;2023-03-13T05:01:22;12.77;;;4.38;;
23300;SDS011;11819;51.394;12.340;2023-03-13T05:04:07;25.55;;;4.28;;
23300;SDS011;11819;51.394;12.340;2023-03-13T05:06:59;15.48;;;4.50;;
23300;SDS011;11819;51.394;12.340;2023-03-13T05:09:59;13.02;;;3.42;;
23300;SDS011;11819;51.394;12.340;2023-03-13T05:12:49;12.75;;;3.63;;
23300;SDS011;11819;51.394;12.340;2023-03-13T05:15:47;14.27;;;3.78;;
23300;SDS011;11819;51.394;12.340;2023-03-13T05:18:31;16.20;;;4.07;;
23300;SDS011;11819;51.394;12.340;2023-03-13T05:21:06;11.38;;;4.03;;
23300;SDS011;11819;51.394;12.340;2023-03-13T05:23:50;15.13;;;4.53;;
23300;SDS011;11819;51.394;12.340;2023-03-13T05:26:32;16.38;;;4.18;;
23300;SDS011;11819;51.394;12.340;2023-03-13T05:29:16;16.05;;;4.53;;
23300;SDS011;11819;51.394;12.340;2023-03-13T05:32:01;12.95;;;4.53;;
23300;SDS011;11819;51.394;12.340;2023-03-13T05:34:57;12.02;;;3.83;;
23300;SDS011;11819;51.394;12.340;2023-03-13T05:37:41;13.20;;;3.63;;
23300;SDS011;11819;51.394;12.340;2023-03-13T05:40:26;13.07;;;4.07;;
23300;SDS011;11819;51.394;12.340;2023-03-13T05:43:13;14.75;;;4.65;;
23300;SDS011;11819;51.394;12.340;2023-03-13T05:45:58;11.23;;;4.03;;
23300;SDS011;11819;51.394;12.340;2023-03-13T05:48:42;12.07;;;4.90;;
23300;SDS011;11819;51.394;12.340;2023-03-13T05:51:42;11.55;;;3.88;;
23300;SDS011;11819;51.394;12.340;2023-03-13T05:54:25;11.68;;;3.47;;
23300;SDS011;11819;51.394;12.340;2023-03-13T05:57:19;16.67;;;4.20;;
23300;SDS011;11819;51.394;12.340;2023-03-13T06:00:02;12.48;;;4.20;;
23300;SDS011;11819;51.394;12.340;2023-03-13T06:03:01;11.55;;;4.07;;
23300;SDS011;11819;51.394;12.340;2023-03-13T06:05:34;11.05;;;3.63;;
23300;SDS011;11819;51.394;12.340;2023-03-13T06:08:04;15.35;;;4.57;;
23300;SDS011;11819;51.394;12.340;2023-03-13T06:10:29;14.90;;;3.85;;
23300;SDS011;11819;51.394;12.340;2023-03-13T06:12:57;12.95;;;4.25;;
23300;SDS011;11819;51.394;12.340;2023-03-13T06:15:27;14.77;;;4.18;;
23300;SDS011;11819;51.394;12.340;2023-03-13T06:17:59;13.27;;;4.47;;
23300;SDS011;11819;51.394;12.340;2023-03-13T06:20:24;10.98;;;3.75;;
23300;SDS011;11819;51.394;12.340;2023-03-13T06:22:50;12.32;;;4.00;;
23300;SDS011;11819;51.394;12.340;2023-03-13T06:25:15;11.57;;;3.58;;
23300;SDS011;11819;51.394;12.340;2023-03-13T06:27:41;13.25;;;3.85;;
23300;SDS011;11819;51.394;12.340;2023-03-13T06:30:08;13.82;;;4.18;;
23300;SDS011;11819;51.394;12.340;2023-03-13T06:32:35;10.95;;;4.05;;
23300;SDS011;11819;51.394;12.340;2023-03-13T06:35:01;12.20;;;4.93;;
23300;SDS011;11819;51.394;12.340;2023-03-13T06:37:27;11.93;;;4.72;;
23300;SDS011;11819;51.394;12.340;2023-03-13T06:39:54;15.05;;;4.10;;
23300;SDS011;11819;51.394;12.340;2023-03-13T06:42:20;11.98;;;3.95;;
23300;SDS011;11819;51.394;12.340;2023-03-13T06:44:45;12.02;;;4.55;;
23300;SDS011;11819;51.394;12.340;2023-03-13T06:47:11;13.60;;;4.28;;
23300;SDS011;11819;51.394;12.340;2023-03-13T06:49:37;14.68;;;4.20;;
23300;SDS011;11819;51.394;12.340;2023-03-13T06:52:02;13.40;;;3.97;;
23300;SDS011;11819;51.394;12.340;2023-03-13T06:54:28;11.52;;;3.92;;
23300;SDS011;11819;51.394;12.340;2023-03-13T06:56:54;14.82;;;4.32;;
23300;SDS011;11819;51.394;12.340;2023-03-13T06:59:19;10.38;;;4.70;;
23300;SDS011;11819;51.394;12.340;2023-03-13T07:01:45;13.48;;;4.75;;
23300;SDS011;11819;51.394;12.340;2023-03-13T07:04:11;14.57;;;3.85;;
23300;SDS011;11819;51.394;12.340;2023-03-13T07:06:37;10.32;;;3.65;;
23300;SDS011;11819;51.394;12.340;2023-03-13T07:09:03;14.73;;;4.10;;
23300;SDS011;11819;51.394;12.340;2023-03-13T07:11:29;16.17;;;4.18;;
23300;SDS011;11819;51.394;12.340;2023-03-13T07:13:55;11.10;;;3.88;;
23300;SDS011;11819;51.394;12.340;2023-03-13T07:16:21;10.48;;;3.70;;
23300;SDS011;11819;51.394;12.340;2023-03-13T07:18:47;12.02;;;3.55;;
23300;SDS011;11819;51.394;12.340;2023-03-13T07:21:13;8.23;;;3.90;;
23300;SDS011;11819;51.394;12.340;2023-03-13T07:23:39;12.10;;;3.70;;
23300;SDS011;11819;51.394;12.340;2023-03-13T07:26:06;12.93;;;3.95;;
23300;SDS011;11819;51.394;12.340;2023-03-13T07:28:35;10.50;;;3.40;;
23300;SDS011;11819;51.394;12.340;2023-03-13T07:31:18;7.70;;;3.08;;
23300;SDS011;11819;51.394;12.340;2023-03-13T07:33:45;9.10;;;2.95;;
23300;SDS011;11819;51.394;12.340;2023-03-13T07:36:12;8.18;;;2.95;;
23300;SDS011;11819;51.394;12.340;2023-03-13T07:38:39;9.85;;;2.97;;
23300;SDS011;11819;51.394;12.340;2023-03-13T07:41:09;9.15;;;2.60;;
23300;SDS011;11819;51.394;12.340;2023-03-13T07:43:36;9.07;;;2.72;;
23300;SDS011;11819;51.394;12.340;2023-03-13T07:46:03;8.82;;;2.80;;
23300;SDS011;11819;51.394;12.340;2023-03-13T07:48:33;7.18;;;2.70;;
23300;SDS011;11819;51.394;12.340;2023-03-13T07:51:00;5.20;;;2.47;;
23300;SDS011;11819;51.394;12.340;2023-03-13T07:53:26;5.88;;;1.80;;
23300;SDS011;11819;51.394;12.340;2023-03-13T07:55:57;6.45;;;2.22;;
23300;SDS011;11819;51.394;12.340;2023-03-13T07:58:34;2.78;;;1.52;;
23300;SDS011;11819;51.394;12.340;2023-03-13T08:03:53;3.00;;;1.05;;
23300;SDS011;11819;51.394;12.340;2023-03-13T08:06:21;5.53;;;1.60;;
23300;SDS011;11819;51.394;12.340;2023-03-13T08:08:50;5.70;;;1.63;;
23300;SDS011;11819;51.394;12.340;2023-03-13T08:11:19;3.55;;;1.40;;
23300;SDS011;11819;51.394;12.340;2023-03-13T08:13:47;4.57;;;1.50;;
23300;SDS011;11819;51.394;12.340;2023-03-13T08:16:15;3.03;;;1.23;;
23300;SDS011;11819;51.394;12.340;2023-03-13T08:18:43;5.43;;;1.30;;
23300;SDS011;11819;51.394;12.340;2023-03-13T08:21:11;6.45;;;1.90;;
23300;SDS011;11819;51.394;12.340;2023-03-13T08:23:39;4.35;;;1.67;;
23300;SDS011;11819;51.394;12.340;2023-03-13T08:26:09;3.38;;;1.60;;
23300;SDS011;11819;51.394;12.340;2023-03-13T08:28:38;4.57;;;2.55;;
23300;SDS011;11819;51.394;12.340;2023-03-13T08:31:08;6.38;;;1.75;;
23300;SDS011;11819;51.394;12.340;2023-03-13T08:33:38;3.42;;;1.38;;
23300;SDS011;11819;51.394;12.340;2023-03-13T08:36:21;3.95;;;1.52;;
23300;SDS011;11819;51.394;12.340;2023-03-13T08:38:52;4.53;;;2.00;;
23300;SDS011;11819;51.394;12.340;2023-03-13T08:41:19;2.58;;;1.65;;
23300;SDS011;11819;51.394;12.340;2023-03-13T08:43:47;3.83;;;1.02;;
23300;SDS011;11819;51.394;12.340;2023-03-13T08:46:13;5.65;;;1.50;;
23300;SDS011;11819;51.394;12.340;2023-03-13T08:48:39;4.75;;;1.48;;
23300;SDS011;11819;51.394;12.340;2023-03-13T08:51:09;2.33;;;1.15;;
23300;SDS011;11819;51.394;12.340;2023-03-13T08:53:37;1.98;;;1.10;;
23300;SDS011;11819;51.394;12.340;2023-03-13T08:56:05;2.83;;;1.55;;
23300;SDS011;11819;51.394;12.340;2023-03-13T08:58:31;3.78;;;1.50;;
23300;SDS011;11819;51.394;12.340;2023-03-13T09:01:05;2.10;;;1.25;;
23300;SDS011;11819;51.394;12.340;2023-03-13T09:03:33;2.67;;;1.30;;
23300;SDS011;11819;51.394;12.340;2023-03-13T09:05:59;1.20;;;1.08;;
23300;SDS011;11819;51.394;12.340;2023-03-13T09:08:26;2.00;;;1.30;;
23300;SDS011;11819;51.394;12.340;2023-03-13T09:10:59;2.67;;;1.70;;
23300;SDS011;11819;51.394;12.340;2023-03-13T09:13:27;2.03;;;1.05;;
23300;SDS011;11819;51.394;12.340;2023-03-13T09:15:57;2.10;;;1.30;;
23300;SDS011;11819;51.394;12.340;2023-03-13T09:18:26;1.80;;;1.30;;
23300;SDS011;11819;51.394;12.340;2023-03-13T09:20:53;3.08;;;1.35;;
23300;SDS011;11819;51.394;12.340;2023-03-13T09:23:19;4.65;;;1.60;;
23300;SDS011;11819;51.394;12.340;2023-03-13T09:25:46;3.10;;;1.60;;
23300;SDS011;11819;51.394;12.340;2023-03-13T09:28:12;3.47;;;1.67;;
23300;SDS011;11819;51.394;12.340;2023-03-13T09:30:38;2.22;;;1.30;;
23300;SDS011;11819;51.394;12.340;2023-03-13T09:33:05;3.15;;;1.20;;
23300;SDS011;11819;51.394;12.340;2023-03-13T09:35:31;3.25;;;1.38;;
23300;SDS011;11819;51.394;12.340;2023-03-13T09:37:57;2.90;;;1.40;;
23300;SDS011;11819;51.394;12.340;2023-03-13T09:40:23;2.83;;;1.50;;
23300;SDS011;11819;51.394;12.340;2023-03-13T09:42:51;2.55;;;1.17;;
23300;SDS011;11819;51.394;12.340;2023-03-13T09:45:22;3.92;;;1.45;;
23300;SDS011;11819;51.394;12.340;2023-03-13T09:48:39;2.72;;;1.50;;
23300;SDS011;11819;51.394;12.340;2023-03-13T09:51:02;2.72;;;1.20;;
23300;SDS011;11819;51.394;12.340;2023-03-13T09:53:48;1.33;;;1.08;;
23300;SDS011;11819;51.394;12.340;2023-03-13T09:56:43;4.43;;;1.40;;
23300;SDS011;11819;51.394;12.340;2023-03-13T09:59:28;4.40;;;1.40;;
23300;SDS011;11819;51.394;12.340;2023-03-13T10:02:41;2.67;;;1.27;;
23300;SDS011;11819;51.394;12.340;2023-03-13T10:07:29;3.55;;;1.45;;
23300;SDS011;11819;51.394;12.340;2023-03-13T10:09:55;1.70;;;1.20;;
23300;SDS011;11819;51.394;12.340;2023-03-13T10:12:26;2.78;;;1.25;;
23300;SDS011;11819;51.394;12.340;2023-03-13T10:17:43;2.97;;;1.30;;
23300;SDS011;11819;51.394;12.340;2023-03-13T10:22:55;2.20;;;1.35;;
23300;SDS011;11819;51.394;12.340;2023-03-13T10:25:31;3.00;;;1.70;;
23300;SDS011;11819;51.394;12.340;2023-03-13T10:27:59;9.40;;;4.88;;
23300;SDS011;11819;51.394;12.340;2023-03-13T10:30:30;3.65;;;2.25;;
23300;SDS011;11819;51.394;12.340;2023-03-13T10:35:33;1.55;;;1.38;;
23300;SDS011;11819;51.394;12.340;2023-03-13T10:38:19;5.32;;;2.85;;
23300;SDS011;11819;51.394;12.340;2023-03-13T10:40:55;2.00;;;1.20;;
23300;SDS011;11819;51.394;12.340;2023-03-13T10:43:22;2.00;;;1.40;;
23300;SDS011;11819;51.394;12.340;2023-03-13T10:45:51;2.25;;;1.05;;
23300;SDS011;11819;51.394;12.340;2023-03-13T10:48:25;2.00;;;1.20;;
23300;SDS011;11819;51.394;12.340;2023-03-13T10:50:55;1.17;;;1.00;;
23300;SDS011;11819;51.394;12.340;2023-03-13T10:56:08;4.00;;;1.58;;
23300;SDS011;11819;51.394;12.340;2023-03-13T11:03:41;0.90;;;0.65;;
23300;SDS011;11819;51.394;12.340;2023-03-13T11:06:14;2.15;;;1.05;;
23300;SDS011;11819;51.394;12.340;2023-03-13T11:09:11;1.52;;;1.00;;
23300;SDS011;11819;51.394;12.340;2023-03-13T11:11:49;3.63;;;1.38;;
23300;SDS011;11819;51.394;12.340;2023-03-13T11:14:23;1.90;;;0.93;;
23300;SDS011;11819;51.394;12.340;2023-03-13T11:16:51;2.33;;;1.33;;
23300;SDS011;11819;51.394;12.340;2023-03-13T11:24:49;1.48;;;0.90;;
23300;SDS011;11819;51.394;12.340;2023-03-13T11:36:35;4.50;;;1.85;;
23300;SDS011;11819;51.394;12.340;2023-03-13T11:39:29;5.30;;;1.58;;
23300;SDS011;11819;51.394;12.340;2023-03-13T11:42:26;2.60;;;1.40;;
23300;SDS011;11819;51.394;12.340;2023-03-13T11:45:42;3.08;;;1.38;;
23300;SDS011;11819;51.394;12.340;2023-03-13T11:54:29;3.30;;;1.88;;
23300;SDS011;11819;51.394;12.340;2023-03-13T11:57:02;2.28;;;1.40;;
23300;SDS011;11819;51.394;12.340;2023-03-13T11:59:42;3.47;;;1.63;;
23300;SDS011;11819;51.394;12.340;2023-03-13T12:02:21;2.40;;;1.35;;
23300;SDS011;11819;51.394;12.340;2023-03-13T12:05:02;2.42;;;1.88;;
23300;SDS011;11819;51.394;12.340;2023-03-13T12:07:40;5.05;;;1.88;;
23300;SDS011;11819;51.394;12.340;2023-03-13T12:10:11;2.70;;;1.63;;
23300;SDS011;11819;51.394;12.340;2023-03-13T12:12:50;2.78;;;1.40;;
23300;SDS011;11819;51.394;12.340;2023-03-13T12:15:29;2.75;;;1.48;;
23300;SDS011;11819;51.394;12.340;2023-03-13T12:18:02;3.88;;;1.90;;
23300;SDS011;11819;51.394;12.340;2023-03-13T12:31:15;2.92;;;1.70;;
23300;SDS011;11819;51.394;12.340;2023-03-13T12:42:34;2.17;;;1.50;;
23300;SDS011;11819;51.394;12.340;2023-03-13T12:45:04;2.65;;;1.38;;
23300;SDS011;11819;51.394;12.340;2023-03-13T12:47:32;2.40;;;1.55;;
23300;SDS011;11819;51.394;12.340;2023-03-13T12:50:15;2.50;;;1.60;;
23300;SDS011;11819;51.394;12.340;2023-03-13T12:53:14;2.42;;;1.60;;
23300;SDS011;11819;51.394;12.340;2023-03-13T13:01:44;4.68;;;1.58;;
23300;SDS011;11819;51.394;12.340;2023-03-13T13:04:17;2.20;;;1.65;;
23300;SDS011;11819;51.394;12.340;2023-03-13T13:09:33;2.83;;;1.55;;
23300;SDS011;11819;51.394;12.340;2023-03-13T13:12:17;3.72;;;1.52;;
23300;SDS011;11819;51.394;12.340;2023-03-13T13:17:21;3.40;;;1.80;;
23300;SDS011;11819;51.394;12.340;2023-03-13T13:25:46;4.38;;;2.42;;
23300;SDS011;11819;51.394;12.340;2023-03-13T13:30:51;5.47;;;3.08;;
23300;SDS011;11819;51.394;12.340;2023-03-13T13:38:45;3.63;;;2.20;;
23300;SDS011;11819;51.394;12.340;2023-03-13T13:43:41;3.35;;;2.33;;
23300;SDS011;11819;51.394;12.340;2023-03-13T13:48:47;4.75;;;2.40;;
23300;SDS011;11819;51.394;12.340;2023-03-13T13:51:31;2.47;;;1.55;;
23300;SDS011;11819;51.394;12.340;2023-03-13T13:56:59;3.80;;;1.90;;
23300;SDS011;11819;51.394;12.340;2023-03-13T14:04:35;4.75;;;2.25;;
23300;SDS011;11819;51.394;12.340;2023-03-13T14:07:04;2.67;;;1.90;;
23300;SDS011;11819;51.394;12.340;2023-03-13T14:17:51;2.17;;;1.48;;
23300;SDS011;11819;51.394;12.340;2023-03-13T14:20:26;3.00;;;1.35;;
23300;SDS011;11819;51.394;12.340;2023-03-13T14:23:05;3.83;;;1.88;;
23300;SDS011;11819;51.394;12.340;2023-03-13T14:25:44;3.05;;;2.30;;
23300;SDS011;11819;51.394;12.340;2023-03-13T14:28:17;3.42;;;1.85;;
23300;SDS011;11819;51.394;12.340;2023-03-13T14:30:45;3.47;;;2.25;;
23300;SDS011;11819;51.394;12.340;2023-03-13T14:33:11;3.55;;;1.63;;
23300;SDS011;11819;51.394;12.340;2023-03-13T14:35:38;5.97;;;2.40;;
23300;SDS011;11819;51.394;12.340;2023-03-13T14:38:04;5.53;;;2.00;;
23300;SDS011;11819;51.394;12.340;2023-03-13T14:40:32;3.17;;;1.83;;
23300;SDS011;11819;51.394;12.340;2023-03-13T14:43:02;2.58;;;1.95;;
23300;SDS011;11819;51.394;12.340;2023-03-13T14:45:39;4.45;;;2.30;;
23300;SDS011;11819;51.394;12.340;2023-03-13T14:48:21;2.88;;;1.85;;
23300;SDS011;11819;51.394;12.340;2023-03-13T14:50:52;3.67;;;1.67;;
23300;SDS011;11819;51.394;12.340;2023-03-13T14:53:25;4.65;;;2.50;;
23300;SDS011;11819;51.394;12.340;2023-03-13T14:56:11;4.65;;;2.20;;
23300;SDS011;11819;51.394;12.340;2023-03-13T14:58:43;4.63;;;2.13;;
23300;SDS011;11819;51.394;12.340;2023-03-13T15:01:20;4.30;;;2.60;;
23300;SDS011;11819;51.394;12.340;2023-03-13T15:03:47;4.30;;;2.20;;
23300;SDS011;11819;51.394;12.340;2023-03-13T15:06:31;3.50;;;2.13;;
23300;SDS011;11819;51.394;12.340;2023-03-13T15:09:13;2.83;;;1.83;;
23300;SDS011;11819;51.394;12.340;2023-03-13T15:11:55;4.47;;;1.98;;
23300;SDS011;11819;51.394;12.340;2023-03-13T15:14:33;8.20;;;3.70;;
23300;SDS011;11819;51.394;12.340;2023-03-13T15:17:13;3.75;;;2.00;;
23300;SDS011;11819;51.394;12.340;2023-03-13T15:19:50;3.80;;;2.40;;
23300;SDS011;11819;51.394;12.340;2023-03-13T15:22:17;5.35;;;2.63;;
23300;SDS011;11819;51.394;12.340;2023-03-13T15:24:49;2.83;;;2.17;;
23300;SDS011;11819;51.394;12.340;2023-03-13T15:27:16;3.83;;;1.85;;
23300;SDS011;11819;51.394;12.340;2023-03-13T15:29:43;3.80;;;2.20;;
23300;SDS011;11819;51.394;12.340;2023-03-13T15:32:11;4.53;;;2.67;;
23300;SDS011;11819;51.394;12.340;2023-03-13T15:34:48;6.32;;;2.70;;
23300;SDS011;11819;51.394;12.340;2023-03-13T15:37:14;4.75;;;2.60;;
23300;SDS011;11819;51.394;12.340;2023-03-13T15:39:40;3.80;;;2.05;;
23300;SDS011;11819;51.394;12.340;2023-03-13T15:42:06;5.82;;;2.80;;
23300;SDS011;11819;51.394;12.340;2023-03-13T15:44:32;4.03;;;2.83;;
23300;SDS011;11819;51.394;12.340;2023-03-13T15:46:58;5.00;;;2.70;;
23300;SDS011;11819;51.394;12.340;2023-03-13T15:49:23;6.63;;;3.00;;
23300;SDS011;11819;51.394;12.340;2023-03-13T15:51:51;5.50;;;2.60;;
23300;SDS011;11819;51.394;12.340;2023-03-13T15:54:19;5.80;;;2.92;;
23300;SDS011;11819;51.394;12.340;2023-03-13T15:56:44;6.28;;;3.13;;
23300;SDS011;11819;51.394;12.340;2023-03-13T15:59:12;4.72;;;2.80;;
23300;SDS011;11819;51.394;12.340;2023-03-13T16:01:39;5.47;;;3.05;;
23300;SDS011;11819;51.394;12.340;2023-03-13T16:04:05;5.00;;;2.80;;
23300;SDS011;11819;51.394;12.340;2023-03-13T16:06:33;4.85;;;3.15;;
23300;SDS011;11819;51.394;12.340;2023-03-13T16:08:59;5.70;;;3.10;;
23300;SDS011;11819;51.394;12.340;2023-03-13T16:11:27;3.40;;;2.42;;
23300;SDS011;11819;51.394;12.340;2023-03-13T16:13:53;5.28;;;2.70;;
23300;SDS011;11819;51.394;12.340;2023-03-13T16:16:20;5.53;;;3.03;;
23300;SDS011;11819;51.394;12.340;2023-03-13T16:18:48;5.03;;;3.13;;
23300;SDS011;11819;51.394;12.340;2023-03-13T16:21:19;3.95;;;2.75;;
23300;SDS011;11819;51.394;12.340;2023-03-13T16:23:47;6.47;;;2.88;;
23300;SDS011;11819;51.394;12.340;2023-03-13T16:26:14;7.10;;;3.60;;
23300;SDS011;11819;51.394;12.340;2023-03-13T16:28:41;5.72;;;3.50;;
23300;SDS011;11819;51.394;12.340;2023-03-13T16:31:15;5.35;;;3.50;;
23300;SDS011;11819;51.394;12.340;2023-03-13T16:33:46;7.07;;;3.35;;
23300;SDS011;11819;51.394;12.340;2023-03-13T16:36:16;6.20;;;3.08;;
23300;SDS011;11819;51.394;12.340;2023-03-13T16:38:47;5.43;;;3.40;;
23300;SDS011;11819;51.394;12.340;2023-03-13T16:41:17;7.20;;;4.18;;
23300;SDS011;11819;51.394;12.340;2023-03-13T16:43:45;8.02;;;3.53;;
23300;SDS011;11819;51.394;12.340;2023-03-13T16:46:12;6.22;;;3.65;;